createdAt,value
2023-05-21T00:00:14.086Z,60.78
2023-05-21T00:01:11.082Z,60.73
2023-05-21T00:02:11.080Z,60.66
2023-05-21T00:03:15.198Z,60.74
2023-05-21T00:04:11.089Z,60.64
2023-05-21T00:05:13.642Z,60.64
2023-05-21T00:06:11.099Z,60.68
2023-05-21T00:07:11.083Z,60.64
2023-05-21T00:08:11.081Z,60.65
2023-05-21T00:09:11.076Z,60.55
2023-05-21T00:10:11.094Z,60.67
2023-05-21T00:11:11.080Z,60.69
2023-05-21T00:12:11.094Z,60.64
2023-05-21T00:13:11.089Z,60.71
2023-05-21T00:14:11.078Z,60.70
2023-05-21T00:15:11.082Z,60.72
2023-05-21T00:16:11.203Z,60.99
2023-05-21T00:17:11.083Z,61.03
2023-05-21T00:18:11.117Z,61.03
2023-05-21T00:19:11.166Z,61.16
2023-05-21T00:20:11.074Z,61.22
2023-05-21T00:21:11.087Z,61.27
2023-05-21T00:22:11.090Z,61.33
2023-05-21T00:23:11.083Z,61.37
2023-05-21T00:24:11.077Z,61.49
2023-05-21T00:25:11.102Z,61.55
2023-05-21T00:26:11.085Z,61.46
2023-05-21T00:27:11.089Z,61.37
2023-05-21T00:28:11.091Z,61.35
2023-05-21T00:29:11.081Z,61.55
2023-05-21T00:30:11.084Z,61.55
2023-05-21T00:31:11.131Z,61.47
2023-05-21T00:32:11.177Z,61.47
2023-05-21T00:33:11.110Z,61.55
2023-05-21T00:34:11.100Z,61.58
2023-05-21T00:35:11.078Z,61.59
2023-05-21T00:36:11.093Z,61.55
2023-05-21T00:37:11.086Z,61.50
2023-05-21T00:38:11.077Z,61.65
2023-05-21T00:39:11.103Z,61.68
2023-05-21T00:40:11.088Z,61.72
2023-05-21T00:41:11.086Z,61.68
2023-05-21T00:42:11.089Z,61.70
2023-05-21T00:43:11.083Z,61.54
2023-05-21T00:44:11.084Z,61.39
2023-05-21T00:45:11.082Z,61.37
2023-05-21T00:46:13.105Z,61.35
2023-05-21T00:47:11.086Z,61.28
2023-05-21T00:48:11.080Z,61.34
2023-05-21T00:49:13.082Z,61.57
2023-05-21T00:50:11.105Z,61.69
2023-05-21T00:51:11.081Z,61.67
2023-05-21T00:52:11.085Z,61.78
2023-05-21T00:53:13.081Z,61.77
2023-05-21T00:54:11.078Z,61.76
2023-05-21T00:55:11.148Z,61.74
2023-05-21T00:56:11.080Z,61.73
2023-05-21T00:57:11.077Z,61.82
2023-05-21T00:58:11.089Z,61.87
2023-05-21T00:59:11.081Z,61.97
2023-05-21T01:00:14.081Z,61.86
2023-05-21T01:01:11.071Z,62.05
2023-05-21T01:02:11.066Z,62.12
2023-05-21T01:03:11.419Z,62.18
2023-05-21T01:04:11.056Z,62.23
2023-05-21T01:05:11.077Z,62.58
2023-05-21T01:06:11.059Z,62.81
2023-05-21T01:07:11.058Z,63.02
2023-05-21T01:08:11.059Z,62.90
2023-05-21T01:09:11.068Z,62.88
2023-05-21T01:10:11.058Z,63.37
2023-05-21T01:11:11.074Z,63.65
2023-05-21T01:12:11.072Z,63.62
2023-05-21T01:13:11.058Z,63.56
2023-05-21T01:14:11.096Z,63.40
2023-05-21T01:15:11.064Z,63.37
2023-05-21T01:16:11.057Z,63.31
2023-05-21T01:17:11.145Z,63.37
2023-05-21T01:18:11.108Z,63.27
2023-05-21T01:19:13.154Z,63.43
2023-05-21T01:20:19.065Z,63.40
2023-05-21T01:21:11.069Z,63.44
2023-05-21T01:22:12.061Z,63.52
2023-05-21T01:23:11.073Z,63.73
2023-05-21T01:24:11.057Z,63.66
2023-05-21T01:25:11.066Z,63.61
2023-05-21T01:26:11.067Z,63.55
2023-05-21T01:27:11.080Z,63.67
2023-05-21T01:28:11.061Z,63.72
2023-05-21T01:29:15.069Z,63.91
2023-05-21T01:30:11.062Z,64.03
2023-05-21T01:31:19.063Z,64.17
2023-05-21T01:32:19.063Z,64.24
2023-05-21T01:33:19.180Z,64.43
2023-05-21T01:34:13.061Z,64.59
2023-05-21T01:35:12.058Z,64.85
2023-05-21T01:36:19.072Z,65.17
2023-05-21T01:37:20.062Z,65.52
2023-05-21T01:38:17.060Z,65.54
2023-05-21T01:39:17.078Z,65.60
2023-05-21T01:40:19.066Z,65.87
2023-05-21T01:41:12.075Z,65.85
2023-05-21T01:42:11.061Z,65.93
2023-05-21T01:43:11.074Z,66.40
2023-05-21T01:44:11.088Z,66.54
2023-05-21T01:45:11.065Z,66.50
2023-05-21T01:46:12.142Z,66.82
2023-05-21T01:47:11.092Z,66.86
2023-05-21T01:48:11.069Z,67.01
2023-05-21T01:49:11.064Z,66.95
2023-05-21T01:50:11.073Z,67.33
2023-05-21T01:51:11.071Z,67.28
2023-05-21T01:52:11.074Z,67.17
2023-05-21T01:53:11.076Z,67.15
2023-05-21T01:54:11.073Z,67.40
2023-05-21T01:55:11.061Z,67.63
2023-05-21T01:56:11.067Z,67.78
2023-05-21T01:57:11.068Z,67.52
2023-05-21T01:58:11.104Z,67.30
2023-05-21T01:59:11.084Z,67.16
2023-05-21T02:00:11.066Z,67.28
2023-05-21T02:01:11.077Z,67.37
2023-05-21T02:02:11.375Z,67.18
2023-05-21T02:03:11.167Z,67.36
2023-05-21T02:04:11.109Z,67.39
2023-05-21T02:05:11.084Z,67.44
2023-05-21T02:06:11.069Z,67.32
2023-05-21T02:07:11.076Z,67.27
2023-05-21T02:08:12.070Z,67.13
2023-05-21T02:09:11.067Z,67.03
2023-05-21T02:10:11.076Z,67.12
2023-05-21T02:11:11.074Z,67.02
2023-05-21T02:12:11.072Z,67.05
2023-05-21T02:13:11.084Z,66.94
2023-05-21T02:14:11.088Z,66.78
2023-05-21T02:15:11.092Z,66.79
2023-05-21T02:16:13.150Z,66.77
2023-05-21T02:17:11.074Z,66.79
2023-05-21T02:18:11.105Z,66.83
2023-05-21T02:19:11.211Z,66.72
2023-05-21T02:20:15.088Z,66.65
2023-05-21T02:21:11.075Z,66.70
2023-05-21T02:22:11.072Z,66.61
2023-05-21T02:23:11.073Z,66.45
2023-05-21T02:24:11.075Z,66.46
2023-05-21T02:25:11.071Z,66.50
2023-05-21T02:26:11.076Z,66.47
2023-05-21T02:27:11.075Z,66.56
2023-05-21T02:28:11.071Z,66.61
2023-05-21T02:29:11.085Z,66.65
2023-05-21T02:30:11.096Z,66.67
2023-05-21T02:31:11.075Z,66.64
2023-05-21T02:32:11.088Z,66.70
2023-05-21T02:33:12.076Z,66.75
2023-05-21T02:34:11.173Z,66.68
2023-05-21T02:35:11.075Z,66.61
2023-05-21T02:36:11.077Z,66.56
2023-05-21T02:37:11.087Z,66.49
2023-05-21T02:38:11.092Z,66.45
2023-05-21T02:39:11.102Z,66.52
2023-05-21T02:40:11.072Z,66.51
2023-05-21T02:41:11.092Z,66.53
2023-05-21T02:42:11.081Z,66.37
2023-05-21T02:43:11.077Z,66.33
2023-05-21T02:44:11.076Z,66.49
2023-05-21T02:45:13.078Z,66.71
2023-05-21T02:46:11.102Z,66.75
2023-05-21T02:47:12.079Z,66.61
2023-05-21T02:48:11.159Z,66.52
2023-05-21T02:49:11.082Z,66.47
2023-05-21T02:50:11.081Z,66.36
2023-05-21T02:51:11.086Z,66.37
2023-05-21T02:52:11.085Z,66.43
2023-05-21T02:53:11.075Z,66.39
2023-05-21T02:54:11.076Z,66.53
2023-05-21T02:55:11.086Z,66.54
2023-05-21T02:56:11.076Z,66.69
2023-05-21T02:57:11.075Z,66.86
2023-05-21T02:58:11.072Z,66.97
2023-05-21T02:59:11.076Z,67.13
2023-05-21T03:00:11.082Z,67.02
2023-05-21T03:01:11.136Z,67.01
2023-05-21T03:02:11.117Z,66.97
2023-05-21T03:03:11.237Z,67.15
2023-05-21T03:04:11.074Z,67.25
2023-05-21T03:05:11.077Z,67.10
2023-05-21T03:06:11.072Z,67.00
2023-05-21T03:07:11.073Z,67.04
2023-05-21T03:08:11.084Z,67.48
2023-05-21T03:09:11.075Z,67.51
2023-05-21T03:10:11.107Z,67.42
2023-05-21T03:11:11.082Z,67.54
2023-05-21T03:12:11.094Z,67.71
2023-05-21T03:13:11.129Z,67.65
2023-05-21T03:14:11.079Z,67.61
2023-05-21T03:15:11.094Z,67.65
2023-05-21T03:16:11.087Z,67.86
2023-05-21T03:17:11.078Z,67.78
2023-05-21T03:18:11.103Z,67.79
2023-05-21T03:19:11.126Z,67.76
2023-05-21T03:20:11.087Z,67.78
2023-05-21T03:21:11.079Z,67.72
2023-05-21T03:22:11.079Z,67.69
2023-05-21T03:23:11.094Z,67.72
2023-05-21T03:24:11.078Z,67.76
2023-05-21T03:25:11.076Z,67.99
2023-05-21T03:26:11.086Z,68.02
2023-05-21T03:27:11.081Z,68.05
2023-05-21T03:28:11.084Z,68.10
2023-05-21T03:29:11.102Z,68.03
2023-05-21T03:30:11.080Z,68.09
2023-05-21T03:31:11.094Z,68.22
2023-05-21T03:32:11.138Z,68.09
2023-05-21T03:33:11.159Z,68.09
2023-05-21T03:34:12.092Z,68.44
2023-05-21T03:35:11.095Z,68.31
2023-05-21T03:36:11.081Z,68.33
2023-05-21T03:37:11.095Z,68.22
2023-05-21T03:38:11.089Z,68.23
2023-05-21T03:39:11.080Z,68.16
2023-05-21T03:40:11.081Z,68.18
2023-05-21T03:41:11.095Z,68.12
2023-05-21T03:42:11.094Z,67.99
2023-05-21T03:43:11.081Z,68.06
2023-05-21T03:44:11.084Z,68.09
2023-05-21T03:45:11.080Z,68.14
2023-05-21T03:46:11.135Z,68.11
2023-05-21T03:47:11.082Z,68.09
2023-05-21T03:48:11.082Z,68.12
2023-05-21T03:49:11.084Z,68.15
2023-05-21T03:50:11.087Z,68.10
2023-05-21T03:51:11.096Z,67.96
2023-05-21T03:52:11.092Z,68.02
2023-05-21T03:53:11.092Z,68.08
2023-05-21T03:54:11.093Z,68.03
2023-05-21T03:55:11.094Z,68.00
2023-05-21T03:56:11.087Z,67.99
2023-05-21T03:57:11.083Z,68.08
2023-05-21T03:58:11.089Z,68.12
2023-05-21T03:59:11.086Z,68.13
2023-05-21T04:00:11.080Z,68.08
2023-05-21T04:01:11.070Z,68.19
2023-05-21T04:02:11.101Z,68.30
2023-05-21T04:03:11.190Z,68.23
2023-05-21T04:04:11.230Z,68.17
2023-05-21T04:05:11.070Z,68.17
2023-05-21T04:06:11.069Z,68.15
2023-05-21T04:07:14.068Z,68.12
2023-05-21T04:08:11.064Z,68.17
2023-05-21T04:09:11.063Z,68.14
2023-05-21T04:10:11.077Z,68.22
2023-05-21T04:11:11.068Z,68.33
2023-05-21T04:12:11.066Z,68.30
2023-05-21T04:13:11.068Z,68.40
2023-05-21T04:14:11.067Z,68.41
2023-05-21T04:15:11.078Z,68.51
2023-05-21T04:16:12.141Z,68.47
2023-05-21T04:17:11.068Z,68.39
2023-05-21T04:18:11.077Z,68.33
2023-05-21T04:19:11.084Z,68.42
2023-05-21T04:20:11.068Z,68.48
2023-05-21T04:21:11.066Z,68.47
2023-05-21T04:22:11.072Z,68.54
2023-05-21T04:23:11.066Z,68.71
2023-05-21T04:24:11.065Z,68.79
2023-05-21T04:25:11.065Z,68.77
2023-05-21T04:26:11.069Z,68.67
2023-05-21T04:27:11.072Z,68.65
2023-05-21T04:28:11.076Z,68.71
2023-05-21T04:29:11.068Z,68.72
2023-05-21T04:30:11.068Z,68.77
2023-05-21T04:31:12.115Z,68.81
2023-05-21T04:32:11.071Z,68.85
2023-05-21T04:33:11.069Z,68.73
2023-05-21T04:34:11.075Z,68.84
2023-05-21T04:35:11.069Z,68.78
2023-05-21T04:36:11.068Z,68.77
2023-05-21T04:37:11.072Z,68.78
2023-05-21T04:38:11.073Z,68.69
2023-05-21T04:39:11.070Z,68.72
2023-05-21T04:40:11.070Z,68.69
2023-05-21T04:41:11.065Z,68.59
2023-05-21T04:42:11.279Z,68.71
2023-05-21T04:43:11.092Z,68.93
2023-05-21T04:44:11.080Z,68.93
2023-05-21T04:45:11.071Z,68.99
2023-05-21T04:46:11.100Z,68.90
2023-05-21T04:47:11.103Z,68.84
2023-05-21T04:48:11.065Z,68.90
2023-05-21T04:49:11.078Z,68.84
2023-05-21T04:50:11.070Z,68.74
2023-05-21T04:51:11.073Z,68.70
2023-05-21T04:52:11.077Z,68.63
2023-05-21T04:53:11.073Z,68.44
2023-05-21T04:54:11.083Z,68.36
2023-05-21T04:55:11.073Z,68.33
2023-05-21T04:56:11.085Z,68.32
2023-05-21T04:57:11.068Z,68.33
2023-05-21T04:58:11.074Z,68.39
2023-05-21T04:59:11.071Z,68.31
2023-05-21T05:00:11.073Z,68.42
2023-05-21T05:01:11.085Z,68.38
2023-05-21T05:02:11.070Z,68.42
2023-05-21T05:03:11.167Z,68.52
2023-05-21T05:04:11.071Z,68.68
2023-05-21T05:05:11.073Z,68.48
2023-05-21T05:06:11.072Z,68.74
2023-05-21T05:07:11.071Z,68.65
2023-05-21T05:09:11.074Z,68.61
2023-05-21T05:10:11.076Z,68.63
2023-05-21T05:11:11.090Z,68.58
2023-05-21T05:12:11.069Z,68.55
2023-05-21T05:13:11.076Z,68.42
2023-05-21T05:14:11.079Z,68.49
2023-05-21T05:15:11.071Z,68.51
2023-05-21T05:16:11.082Z,68.53
2023-05-21T05:17:11.075Z,68.65
2023-05-21T05:18:11.115Z,68.97
2023-05-21T05:19:11.126Z,68.88
2023-05-21T05:20:11.092Z,68.81
2023-05-21T05:21:11.074Z,68.97
2023-05-21T05:22:13.333Z,69.07
2023-05-21T05:23:11.087Z,68.71
2023-05-21T05:24:11.077Z,68.71
2023-05-21T05:25:11.070Z,68.65
2023-05-21T05:26:13.085Z,68.64
2023-05-21T05:27:11.077Z,68.64
2023-05-21T05:28:11.076Z,68.71
2023-05-21T05:29:11.088Z,68.48
2023-05-21T05:30:11.082Z,68.44
2023-05-21T05:31:11.115Z,68.39
2023-05-21T05:32:11.079Z,68.38
2023-05-21T05:33:11.088Z,68.58
2023-05-21T05:34:11.071Z,68.48
2023-05-21T05:35:11.078Z,68.55
2023-05-21T05:36:11.085Z,68.48
2023-05-21T05:37:11.075Z,68.44
2023-05-21T05:38:11.076Z,68.50
2023-05-21T05:39:11.079Z,68.64
2023-05-21T05:40:11.089Z,68.43
2023-05-21T05:41:11.076Z,68.52
2023-05-21T05:42:11.076Z,68.51
2023-05-21T05:43:11.072Z,68.48
2023-05-21T05:44:11.119Z,68.43
2023-05-21T05:45:11.078Z,68.50
2023-05-21T05:46:11.106Z,68.35
2023-05-21T05:47:14.074Z,68.37
2023-05-21T05:48:11.119Z,68.40
2023-05-21T05:49:11.081Z,68.46
2023-05-21T05:50:11.077Z,68.30
2023-05-21T05:51:11.084Z,68.21
2023-05-21T05:52:11.077Z,68.24
2023-05-21T05:53:11.073Z,68.39
2023-05-21T05:54:11.094Z,68.29
2023-05-21T05:55:12.079Z,68.08
2023-05-21T05:56:11.076Z,67.94
2023-05-21T05:57:11.080Z,67.91
2023-05-21T05:58:11.088Z,67.81
2023-05-21T05:59:11.084Z,67.75
2023-05-21T06:00:11.073Z,67.52
2023-05-21T06:01:11.078Z,67.48
2023-05-21T06:02:11.105Z,67.35
2023-05-21T06:03:11.136Z,67.31
2023-05-21T06:04:11.176Z,67.14
2023-05-21T06:05:11.077Z,67.03
2023-05-21T06:06:11.154Z,66.92
2023-05-21T06:07:11.082Z,66.81
2023-05-21T06:08:11.080Z,66.73
2023-05-21T06:09:11.087Z,66.57
2023-05-21T06:10:11.084Z,66.41
2023-05-21T06:11:11.084Z,66.39
2023-05-21T06:12:14.761Z,66.34
2023-05-21T06:13:11.082Z,66.27
2023-05-21T06:14:11.077Z,66.21
2023-05-21T06:15:11.080Z,66.17
2023-05-21T06:16:11.111Z,66.06
2023-05-21T06:17:11.080Z,66.01
2023-05-21T06:18:11.134Z,66.00
2023-05-21T06:19:11.181Z,65.92
2023-05-21T06:20:11.078Z,65.76
2023-05-21T06:21:11.077Z,65.81
2023-05-21T06:22:11.076Z,66.02
2023-05-21T06:23:12.085Z,65.72
2023-05-21T06:24:11.079Z,65.67
2023-05-21T06:25:11.092Z,65.44
2023-05-21T06:26:11.076Z,65.41
2023-05-21T06:27:11.096Z,65.35
2023-05-21T06:28:11.078Z,65.29
2023-05-21T06:29:11.200Z,65.29
2023-05-21T06:30:11.104Z,65.29
2023-05-21T06:31:11.081Z,65.31
2023-05-21T06:32:11.089Z,65.32
2023-05-21T06:33:12.098Z,65.32
2023-05-21T06:34:11.106Z,65.18
2023-05-21T06:35:11.089Z,65.17
2023-05-21T06:36:11.081Z,64.96
2023-05-21T06:37:11.086Z,64.93
2023-05-21T06:38:11.091Z,64.75
2023-05-21T06:39:11.085Z,64.58
2023-05-21T06:40:11.079Z,64.56
2023-05-21T06:41:11.089Z,64.32
2023-05-21T06:42:11.083Z,64.26
2023-05-21T06:43:11.078Z,64.30
2023-05-21T06:44:11.096Z,64.18
2023-05-21T06:45:11.082Z,64.21
2023-05-21T06:46:11.119Z,63.83
2023-05-21T06:47:11.088Z,63.60
2023-05-21T06:48:11.123Z,63.71
2023-05-21T06:49:13.473Z,63.81
2023-05-21T06:50:11.086Z,63.95
2023-05-21T06:51:11.091Z,63.71
2023-05-21T06:52:11.088Z,63.55
2023-05-21T06:53:11.084Z,63.37
2023-05-21T06:54:11.085Z,63.32
2023-05-21T06:55:11.083Z,63.40
2023-05-21T06:56:11.090Z,63.26
2023-05-21T06:57:11.084Z,63.23
2023-05-21T06:58:11.084Z,63.28
2023-05-21T06:59:11.113Z,63.16
2023-05-21T07:00:11.092Z,62.96
2023-05-21T07:01:11.072Z,62.55
2023-05-21T07:02:11.157Z,62.35
2023-05-21T07:03:11.167Z,62.17
2023-05-21T07:04:11.063Z,62.05
2023-05-21T07:05:11.066Z,62.04
2023-05-21T07:06:11.078Z,61.64
2023-05-21T07:07:11.066Z,61.98
2023-05-21T07:08:12.143Z,61.84
2023-05-21T07:09:11.070Z,61.69
2023-05-21T07:10:11.060Z,61.33
2023-05-21T07:11:11.062Z,61.27
2023-05-21T07:12:11.065Z,61.16
2023-05-21T07:13:11.063Z,61.12
2023-05-21T07:14:11.065Z,60.97
2023-05-21T07:15:11.066Z,60.87
2023-05-21T07:16:11.108Z,60.52
2023-05-21T07:17:11.135Z,60.44
2023-05-21T07:18:11.138Z,60.26
2023-05-21T07:19:11.128Z,60.07
2023-05-21T07:20:12.059Z,60.09
2023-05-21T07:21:11.062Z,59.93
2023-05-21T07:22:11.103Z,59.63
2023-05-21T07:23:11.060Z,59.58
2023-05-21T07:24:11.071Z,59.47
2023-05-21T07:25:11.068Z,59.34
2023-05-21T07:26:11.059Z,59.25
2023-05-21T07:27:24.285Z,59.33
2023-05-21T07:28:13.066Z,59.42
2023-05-21T07:29:11.060Z,59.48
2023-05-21T07:30:11.073Z,59.16
2023-05-21T07:31:11.120Z,59.15
2023-05-21T07:32:11.063Z,59.02
2023-05-21T07:33:11.094Z,58.98
2023-05-21T07:34:11.063Z,58.64
2023-05-21T07:35:11.069Z,58.63
2023-05-21T07:36:11.062Z,58.50
2023-05-21T07:37:11.067Z,58.32
2023-05-21T07:38:11.073Z,58.34
2023-05-21T07:39:11.063Z,58.32
2023-05-21T07:40:11.067Z,58.20
2023-05-21T07:41:11.064Z,58.08
2023-05-21T07:42:11.071Z,57.93
2023-05-21T07:43:11.071Z,57.88
2023-05-21T07:44:11.064Z,57.80
2023-05-21T07:45:11.071Z,57.71
2023-05-21T07:46:11.132Z,57.59
2023-05-21T07:47:11.066Z,57.67
2023-05-21T07:48:11.081Z,57.66
2023-05-21T07:49:11.074Z,57.39
2023-05-21T07:50:11.070Z,57.35
2023-05-21T07:51:11.072Z,57.28
2023-05-21T07:52:11.080Z,57.12
2023-05-21T07:53:11.093Z,57.02
2023-05-21T07:54:11.075Z,57.04
2023-05-21T07:55:11.080Z,57.13
2023-05-21T07:56:11.072Z,56.96
2023-05-21T07:57:11.076Z,56.77
2023-05-21T07:58:11.077Z,56.71
2023-05-21T08:00:15.075Z,56.90
2023-05-21T08:01:11.077Z,56.89
2023-05-21T08:02:11.071Z,56.57
2023-05-21T08:03:11.173Z,56.33
2023-05-21T08:04:11.295Z,56.24
2023-05-21T08:05:11.117Z,55.74
2023-05-21T08:06:11.072Z,55.18
2023-05-21T08:07:11.088Z,54.70
2023-05-21T08:08:11.074Z,54.41
2023-05-21T08:09:11.077Z,54.26
2023-05-21T08:10:11.085Z,54.20
2023-05-21T08:11:11.077Z,54.34
2023-05-21T08:12:11.072Z,54.21
2023-05-21T08:13:11.076Z,54.01
2023-05-21T08:14:11.074Z,53.69
2023-05-21T08:15:11.066Z,53.85
2023-05-21T08:16:11.099Z,53.93
2023-05-21T08:17:12.073Z,53.61
2023-05-21T08:18:11.183Z,53.50
2023-05-21T08:19:11.102Z,53.18
2023-05-21T08:20:11.075Z,53.20
2023-05-21T08:21:11.071Z,52.98
2023-05-21T08:22:12.084Z,52.69
2023-05-21T08:23:11.078Z,52.80
2023-05-21T08:24:11.084Z,52.39
2023-05-21T08:25:11.103Z,52.29
2023-05-21T08:26:11.074Z,52.25
2023-05-21T08:27:11.076Z,52.31
2023-05-21T08:28:11.079Z,52.45
2023-05-21T08:29:11.076Z,52.22
2023-05-21T08:30:11.072Z,51.96
2023-05-21T08:31:11.092Z,51.56
2023-05-21T08:32:11.169Z,51.29
2023-05-21T08:33:11.090Z,51.14
2023-05-21T08:34:11.084Z,51.11
2023-05-21T08:35:11.083Z,50.94
2023-05-21T08:36:11.080Z,50.87
2023-05-21T08:37:11.084Z,50.62
2023-05-21T08:38:11.078Z,50.50
2023-05-21T08:39:11.090Z,50.33
2023-05-21T08:40:11.084Z,50.30
2023-05-21T08:41:11.074Z,50.22
2023-05-21T08:42:22.544Z,49.79
2023-05-21T08:43:13.091Z,49.96
2023-05-21T08:44:13.079Z,49.79
2023-05-21T08:45:11.095Z,49.77
2023-05-21T08:46:11.137Z,49.86
2023-05-21T08:47:14.088Z,49.73
2023-05-21T08:48:12.079Z,48.90
2023-05-21T08:49:15.080Z,48.66
2023-05-21T08:50:11.086Z,48.81
2023-05-21T08:51:11.074Z,48.81
2023-05-21T08:52:11.094Z,48.60
2023-05-21T08:53:19.820Z,48.58
2023-05-21T08:54:13.041Z,48.35
2023-05-21T08:55:11.087Z,48.31
2023-05-21T08:56:11.084Z,47.87
2023-05-21T08:57:11.075Z,47.48
2023-05-21T08:58:11.088Z,47.66
2023-05-21T08:59:11.085Z,47.81
2023-05-21T09:00:11.082Z,47.80
2023-05-21T09:01:11.127Z,47.83
2023-05-21T09:02:12.096Z,47.90
2023-05-21T09:03:11.259Z,47.70
2023-05-21T09:04:20.310Z,47.89
2023-05-21T09:05:13.073Z,47.20
2023-05-21T09:06:12.082Z,46.98
2023-05-21T09:07:11.082Z,47.00
2023-05-21T09:08:17.087Z,46.82
2023-05-21T09:09:19.083Z,46.51
2023-05-21T09:10:13.086Z,46.41
2023-05-21T09:11:11.083Z,46.29
2023-05-21T09:12:11.091Z,46.12
2023-05-21T09:13:11.077Z,46.25
2023-05-21T09:14:11.085Z,46.13
2023-05-21T09:15:11.088Z,46.06
2023-05-21T09:16:11.105Z,46.07
2023-05-21T09:17:12.085Z,45.98
2023-05-21T09:18:11.142Z,45.68
2023-05-21T09:19:11.089Z,45.43
2023-05-21T09:20:15.368Z,45.55
2023-05-21T09:21:19.094Z,45.38
2023-05-21T09:22:11.081Z,45.46
2023-05-21T09:23:11.078Z,45.66
2023-05-21T09:24:11.113Z,45.79
2023-05-21T09:25:12.084Z,45.77
2023-05-21T09:26:14.080Z,45.82
2023-05-21T09:27:11.084Z,45.50
2023-05-21T09:28:16.100Z,45.42
2023-05-21T09:29:11.081Z,45.45
2023-05-21T09:30:11.098Z,45.37
2023-05-21T09:31:11.111Z,45.21
2023-05-21T09:32:11.082Z,45.12
2023-05-21T09:33:11.122Z,45.00
2023-05-21T09:34:11.093Z,44.89
2023-05-21T09:35:13.093Z,45.03
2023-05-21T09:36:11.088Z,45.09
2023-05-21T09:37:23.784Z,45.15
2023-05-21T09:38:13.050Z,45.18
2023-05-21T09:39:11.080Z,45.29
2023-05-21T09:40:16.087Z,45.38
2023-05-21T09:41:11.087Z,45.38
2023-05-21T09:42:11.081Z,45.50
2023-05-21T09:43:13.099Z,45.54
2023-05-21T09:44:12.101Z,45.05
2023-05-21T09:45:13.111Z,44.92
2023-05-21T09:46:11.093Z,45.75
2023-05-21T09:47:11.085Z,44.84
2023-05-21T09:48:11.081Z,44.71
2023-05-21T09:49:19.104Z,44.62
2023-05-21T09:50:11.086Z,44.55
2023-05-21T09:51:15.089Z,44.54
2023-05-21T09:52:11.104Z,44.41
2023-05-21T09:53:13.091Z,44.32
2023-05-21T09:54:12.080Z,44.23
2023-05-21T09:55:12.089Z,43.93
2023-05-21T09:56:11.093Z,43.83
2023-05-21T09:57:11.089Z,43.48
2023-05-21T09:58:12.089Z,43.13
2023-05-21T09:59:11.098Z,43.29
2023-05-21T10:00:15.105Z,43.65
2023-05-21T10:01:12.061Z,43.57
2023-05-21T10:02:16.175Z,43.16
2023-05-21T10:03:12.135Z,43.35
2023-05-21T10:04:11.082Z,42.85
2023-05-21T10:05:11.065Z,42.33
2023-05-21T10:06:11.062Z,41.72
2023-05-21T10:07:11.065Z,41.12
2023-05-21T10:08:11.077Z,41.11
2023-05-21T10:09:12.081Z,40.97
2023-05-21T10:10:12.066Z,40.72
2023-05-21T10:11:11.063Z,41.45
2023-05-21T10:12:11.087Z,40.93
2023-05-21T10:13:12.060Z,40.58
2023-05-21T10:14:18.079Z,40.52
2023-05-21T10:15:13.065Z,40.35
2023-05-21T10:16:11.110Z,40.26
2023-05-21T10:17:11.062Z,39.92
2023-05-21T10:18:11.121Z,39.83
2023-05-21T10:19:14.115Z,39.72
2023-05-21T10:20:11.086Z,39.61
2023-05-21T10:21:11.064Z,39.71
2023-05-21T10:22:11.061Z,39.72
2023-05-21T10:23:11.065Z,39.43
2023-05-21T10:24:12.070Z,39.36
2023-05-21T10:25:11.063Z,39.43
2023-05-21T10:26:11.066Z,39.16
2023-05-21T10:27:11.075Z,38.72
2023-05-21T10:28:11.064Z,38.69
2023-05-21T10:29:11.072Z,38.78
2023-05-21T10:30:11.071Z,39.36
2023-05-21T10:31:11.082Z,38.93
2023-05-21T10:32:11.096Z,38.84
2023-05-21T10:33:11.114Z,38.87
2023-05-21T10:34:11.068Z,38.92
2023-05-21T10:35:11.069Z,38.66
2023-05-21T10:36:11.068Z,39.08
2023-05-21T10:37:12.071Z,39.16
2023-05-21T10:38:11.068Z,39.26
2023-05-21T10:39:12.073Z,39.33
2023-05-21T10:40:11.079Z,39.37
2023-05-21T10:41:11.076Z,39.30
2023-05-21T10:42:19.078Z,39.33
2023-05-21T10:43:19.081Z,39.17
2023-05-21T10:44:21.068Z,39.90
2023-05-21T10:45:21.073Z,38.79
2023-05-21T10:46:21.126Z,38.80
2023-05-21T10:47:19.079Z,38.60
2023-05-21T10:48:19.108Z,38.63
2023-05-21T10:49:19.074Z,38.67
2023-05-21T10:50:19.085Z,38.62
2023-05-21T10:51:19.073Z,38.48
2023-05-21T10:52:19.074Z,38.08
2023-05-21T10:53:19.070Z,37.88
2023-05-21T10:54:19.074Z,37.72
2023-05-21T10:55:19.069Z,37.70
2023-05-21T10:56:19.088Z,38.00
2023-05-21T10:57:19.077Z,37.56
2023-05-21T10:58:21.069Z,37.55
2023-05-21T10:59:21.076Z,37.45
2023-05-21T11:00:11.090Z,37.29
2023-05-21T11:01:11.148Z,36.92
2023-05-21T11:02:11.132Z,36.90
2023-05-21T11:03:11.142Z,36.87
2023-05-21T11:04:11.078Z,36.93
2023-05-21T11:05:11.074Z,37.07
2023-05-21T11:06:11.076Z,37.29
2023-05-21T11:07:12.096Z,37.11
2023-05-21T11:08:19.076Z,36.82
2023-05-21T11:09:15.084Z,37.08
2023-05-21T11:10:19.088Z,36.64
2023-05-21T11:11:11.082Z,36.14
2023-05-21T11:12:11.076Z,36.14
2023-05-21T11:13:15.117Z,35.95
2023-05-21T11:14:20.825Z,35.81
2023-05-21T11:15:15.076Z,35.66
2023-05-21T11:16:17.076Z,35.92
2023-05-21T11:17:19.194Z,35.55
2023-05-21T11:18:13.078Z,35.51
2023-05-21T11:19:17.106Z,35.29
2023-05-21T11:20:11.087Z,35.13
2023-05-21T11:21:15.087Z,34.78
2023-05-21T11:22:19.078Z,34.44
2023-05-21T11:23:12.080Z,34.86
2023-05-21T11:24:15.087Z,34.79
2023-05-21T11:25:11.081Z,34.72
2023-05-21T11:26:11.082Z,34.87
2023-05-21T11:27:11.089Z,34.74
2023-05-21T11:28:11.080Z,34.67
2023-05-21T11:29:11.079Z,34.74
2023-05-21T11:30:14.091Z,34.45
2023-05-21T11:31:19.096Z,34.34
2023-05-21T11:32:11.093Z,34.07
2023-05-21T11:33:19.087Z,34.29
2023-05-21T11:34:19.099Z,34.69
2023-05-21T11:35:13.085Z,34.78
2023-05-21T11:36:13.082Z,34.87
2023-05-21T11:37:21.081Z,35.00
2023-05-21T11:38:11.083Z,35.41
2023-05-21T11:39:15.092Z,35.25
2023-05-21T11:40:17.081Z,35.48
2023-05-21T11:41:11.081Z,35.49
2023-05-21T11:42:11.088Z,35.42
2023-05-21T11:43:11.094Z,35.36
2023-05-21T11:44:11.083Z,35.36
2023-05-21T11:45:11.087Z,35.68
2023-05-21T11:46:11.114Z,35.50
2023-05-21T11:47:11.093Z,35.60
2023-05-21T11:48:14.084Z,35.62
2023-05-21T11:49:11.087Z,35.96
2023-05-21T11:50:14.091Z,35.92
2023-05-21T11:51:11.085Z,35.88
2023-05-21T11:52:11.099Z,35.84
2023-05-21T11:53:11.086Z,35.95
2023-05-21T11:54:11.087Z,35.85
2023-05-21T11:55:11.085Z,36.08
2023-05-21T11:56:13.086Z,36.12
2023-05-21T11:57:11.098Z,35.95
2023-05-21T11:58:12.089Z,35.77
2023-05-21T11:59:17.122Z,35.63
2023-05-21T12:00:17.100Z,35.76
2023-05-21T12:01:15.089Z,35.75
2023-05-21T12:02:14.087Z,35.87
2023-05-21T12:03:13.239Z,35.67
2023-05-21T12:04:11.140Z,35.90
2023-05-21T12:05:13.110Z,35.58
2023-05-21T12:06:11.103Z,35.64
2023-05-21T12:07:12.093Z,35.81
2023-05-21T12:08:11.091Z,35.85
2023-05-21T12:09:12.088Z,35.77
2023-05-21T12:10:11.112Z,35.37
2023-05-21T12:11:11.088Z,35.33
2023-05-21T12:12:11.092Z,35.51
2023-05-21T12:13:11.096Z,35.22
2023-05-21T12:14:11.135Z,35.47
2023-05-21T12:15:11.092Z,35.40
2023-05-21T12:16:11.131Z,35.23
2023-05-21T12:17:11.089Z,35.14
2023-05-21T12:18:11.130Z,35.30
2023-05-21T12:19:11.156Z,35.32
2023-05-21T12:20:16.091Z,35.22
2023-05-21T12:21:12.540Z,35.23
2023-05-21T12:22:11.097Z,35.31
2023-05-21T12:23:15.092Z,35.16
2023-05-21T12:24:11.102Z,35.28
2023-05-21T12:25:11.100Z,35.34
2023-05-21T12:26:11.092Z,35.42
2023-05-21T12:27:13.100Z,35.43
2023-05-21T12:28:11.104Z,35.57
2023-05-21T12:29:11.092Z,35.59
2023-05-21T12:30:11.140Z,35.71
2023-05-21T12:31:15.139Z,35.79
2023-05-21T12:32:11.204Z,35.97
2023-05-21T12:33:11.161Z,35.94
2023-05-21T12:34:12.099Z,36.23
2023-05-21T12:35:15.137Z,36.00
2023-05-21T12:36:11.093Z,35.68
2023-05-21T12:37:16.093Z,35.83
2023-05-21T12:38:11.103Z,35.89
2023-05-21T12:39:11.302Z,36.04
2023-05-21T12:40:11.160Z,36.26
2023-05-21T12:41:11.115Z,36.03
2023-05-21T12:42:11.102Z,36.58
2023-05-21T12:43:11.105Z,36.19
2023-05-21T12:44:12.103Z,36.28
2023-05-21T12:45:11.091Z,36.36
2023-05-21T12:46:12.119Z,36.27
2023-05-21T12:47:11.110Z,36.21
2023-05-21T12:48:11.110Z,36.17
2023-05-21T12:49:15.098Z,36.29
2023-05-21T12:50:11.151Z,37.19
2023-05-21T12:51:11.098Z,36.23
2023-05-21T12:52:11.102Z,36.16
2023-05-21T12:53:11.192Z,36.24
2023-05-21T12:54:15.101Z,36.36